Time;durP1;ratioP1;P1;durP2;ratioP2;P2;SDS_P1;SDS_P2;PMS_P1;PMS_P2;Temp;Humidity;BMP_temperature;BMP_pressure;BME280_temperature;BME280_humidity;BME280_pressure;Samples;Min_cycle;Max_cycle;Signal;HPM_P1;HPM_P2
2021/04/27 00:01:19;;;;;;;2.40;2.00;;;-2.10;99.90;;;;;;5057527;28;20508;-80
2021/04/27 00:03:51;;;;;;;2.17;1.98;;;-2.00;99.90;;;;;;5059649;28;20045;-80
2021/04/27 00:06:18;;;;;;;2.10;1.90;;;-2.00;99.90;;;;;;5058872;28;20504;-81
2021/04/27 00:08:44;;;;;;;2.63;1.83;;;-2.00;99.90;;;;;;5058143;28;20099;-79
2021/04/27 00:11:15;;;;;;;2.00;1.90;;;-2.00;99.90;;;;;;5056082;28;20408;-79
2021/04/27 00:13:42;;;;;;;2.95;1.83;;;-2.00;99.90;;;;;;5057426;28;20500;-79
2021/04/27 00:16:18;;;;;;;2.15;1.98;;;-2.00;99.90;;;;;;5057724;28;20053;-79
2021/04/27 00:18:46;;;;;;;2.60;1.92;;;-2.00;99.90;;;;;;5057177;28;20049;-79
2021/04/27 00:21:13;;;;;;;3.08;2.38;;;-2.00;99.90;;;;;;5054771;28;20416;-79
2021/04/27 00:24:15;;;;;;;4.28;2.17;;;-2.20;99.90;;;;;;5056323;28;20080;-79
2021/04/27 00:26:41;;;;;;;4.03;2.25;;;-2.10;99.90;;;;;;5055868;28;20049;-79
2021/04/27 00:29:26;;;;;;;4.32;2.17;;;-2.10;99.90;;;;;;5056087;28;20131;-79
2021/04/27 00:31:52;;;;;;;2.83;2.17;;;-2.20;99.90;;;;;;5055534;28;20124;-80
2021/04/27 00:34:36;;;;;;;3.45;2.20;;;-2.10;99.90;;;;;;5055996;28;20041;-79
2021/04/27 00:37:02;;;;;;;;;;;-2.10;99.90;;;;;;5056441;28;20137;-80
2021/04/27 00:39:54;;;;;;;2.90;2.10;;;-2.10;99.90;;;;;;5056017;28;19920;-80
2021/04/27 00:45:38;;;;;;;2.15;2.00;;;-2.20;99.90;;;;;;5056891;28;20040;-80
2021/04/27 00:48:04;;;;;;;2.58;2.05;;;-2.30;99.90;;;;;;5056703;28;20083;-80
2021/04/27 00:50:37;;;;;;;2.13;1.92;;;-2.30;99.90;;;;;;5056344;28;20052;-80
2021/04/27 00:53:04;;;;;;;6.55;2.47;;;-2.30;99.90;;;;;;5056948;28;20049;-81
2021/04/27 00:55:31;;;;;;;2.80;2.00;;;-2.40;99.90;;;;;;5056955;28;20045;-80
2021/04/27 00:57:59;;;;;;;2.30;2.08;;;-2.50;99.90;;;;;;5057048;28;20045;-80
2021/04/27 01:00:29;;;;;;;2.85;1.95;;;-2.60;99.90;;;;;;5056028;28;20076;-80
2021/04/27 01:02:56;;;;;;;3.17;2.15;;;-2.60;99.90;;;;;;5055813;28;20057;-80
2021/04/27 01:05:25;;;;;;;6.05;1.95;;;-2.60;99.90;;;;;;5056855;28;20080;-80
2021/04/27 01:08:30;;;;;;;2.70;2.15;;;-2.60;99.90;;;;;;5057307;28;20492;-80
2021/04/27 01:14:43;;;;;;;5.68;1.77;;;-2.60;99.90;;;;;;5056601;28;20044;-81
2021/04/27 01:17:16;;;;;;;4.00;2.05;;;-2.80;99.90;;;;;;5056236;28;20068;-81
2021/04/27 01:20:25;;;;;;;3.88;2.30;;;-2.80;99.90;;;;;;4980342;28;20050;-80
2021/04/27 01:22:54;;;;;;;2.30;1.85;;;-2.90;99.90;;;;;;4979725;28;20058;-81
2021/04/27 01:25:32;;;;;;;5.72;2.33;;;-2.90;99.90;;;;;;4980525;28;20414;-81
2021/04/27 01:31:46;;;;;;;5.57;2.60;;;-2.90;99.90;;;;;;4994823;28;20085;-80
2021/04/27 01:34:27;;;;;;;4.45;2.20;;;-2.80;99.90;;;;;;4995247;28;20572;-80
2021/04/27 01:36:54;;;;;;;3.35;2.53;;;-2.90;99.90;;;;;;4983537;28;20119;-79
2021/04/27 01:39:39;;;;;;;2.38;2.17;;;-2.90;99.90;;;;;;5056662;28;20135;-80
2021/04/27 01:42:09;;;;;;;4.32;2.28;;;-2.90;99.90;;;;;;5055336;28;20481;-80
2021/04/27 01:44:38;;;;;;;4.80;2.40;;;-2.80;99.90;;;;;;5055384;28;20075;-79
2021/04/27 01:47:06;;;;;;;2.97;2.30;;;-2.80;99.90;;;;;;5055560;28;20131;-80
2021/04/27 01:49:33;;;;;;;2.33;2.10;;;-2.70;99.90;;;;;;5056257;28;20049;-79
2021/04/27 01:52:00;;;;;;;3.08;2.17;;;-2.70;99.90;;;;;;5057026;28;20041;-80
2021/04/27 01:54:29;;;;;;;3.47;2.35;;;-2.90;99.90;;;;;;5056798;28;20057;-80
2021/04/27 01:56:57;;;;;;;4.88;2.20;;;-3.00;99.90;;;;;;5055717;28;20053;-80
2021/04/27 01:59:23;;;;;;;2.38;2.05;;;-3.00;99.90;;;;;;5056859;28;20500;-80
2021/04/27 02:01:50;;;;;;;3.38;2.50;;;-3.00;99.90;;;;;;5057820;28;20072;-79
2021/04/27 02:04:28;;;;;;;2.33;2.00;;;-3.10;99.90;;;;;;5056254;28;20072;-80
2021/04/27 02:06:55;;;;;;;5.05;2.92;;;-3.20;99.90;;;;;;5054925;28;20099;-80
2021/04/27 02:09:24;;;;;;;2.83;2.38;;;-3.20;99.90;;;;;;5055507;28;20041;-80
2021/04/27 02:11:52;;;;;;;2.50;2.30;;;-3.30;99.90;;;;;;5055074;28;20076;-79
2021/04/27 02:14:24;;;;;;;5.90;2.10;;;-3.30;99.90;;;;;;5054714;28;20045;-79
2021/04/27 02:17:07;;;;;;;4.93;2.42;;;-3.30;99.90;;;;;;5054899;28;20112;-79
2021/04/27 02:19:34;;;;;;;;;;;-3.40;99.90;;;;;;5055594;28;20136;-79
2021/04/27 02:22:04;;;;;;;4.85;2.53;;;-3.40;99.90;;;;;;5056715;28;19956;-79
2021/04/27 02:24:33;;;;;;;3.25;2.42;;;-3.30;99.90;;;;;;5053583;28;20095;-79
2021/04/27 02:27:01;;;;;;;2.45;2.03;;;-3.30;99.90;;;;;;5053791;28;20081;-80
2021/04/27 02:29:29;;;;;;;2.92;2.70;;;-3.30;99.90;;;;;;5054134;28;20076;-78
2021/04/27 02:31:58;;;;;;;2.55;2.25;;;-3.30;99.90;;;;;;5055365;28;20523;-81
2021/04/27 02:34:26;;;;;;;3.03;2.00;;;-3.20;99.90;;;;;;5054784;28;20045;-80
2021/04/27 02:36:55;;;;;;;3.83;2.40;;;-3.30;99.90;;;;;;5056287;28;20048;-80
2021/04/27 02:39:22;;;;;;;3.28;2.17;;;-3.30;99.90;;;;;;5054938;28;20088;-80
2021/04/27 02:41:49;;;;;;;4.70;2.42;;;-3.20;99.90;;;;;;5055165;28;20091;-80
2021/04/27 02:44:17;;;;;;;3.55;2.05;;;-3.10;99.90;;;;;;5054804;28;20045;-80
2021/04/27 02:46:45;;;;;;;5.20;2.50;;;-3.20;99.90;;;;;;5054784;28;20084;-79
2021/04/27 02:49:12;;;;;;;2.53;2.13;;;-3.40;99.90;;;;;;5055100;28;20048;-79
2021/04/27 02:51:39;;;;;;;2.88;2.50;;;-3.50;99.90;;;;;;5055091;28;20448;-79
2021/04/27 02:54:07;;;;;;;2.47;1.98;;;-3.50;99.90;;;;;;5053967;28;20080;-79
2021/04/27 02:56:34;;;;;;;3.30;2.22;;;-3.60;99.90;;;;;;5053792;28;20049;-79
2021/04/27 02:59:03;;;;;;;3.17;2.13;;;-3.60;99.90;;;;;;5053864;28;20471;-79
2021/04/27 03:01:30;;;;;;;2.83;2.60;;;-3.70;99.90;;;;;;5055523;28;20056;-80
2021/04/27 03:03:57;;;;;;;3.80;2.30;;;-3.80;99.90;;;;;;5054273;28;20087;-79
2021/04/27 03:06:23;;;;;;;4.72;2.97;;;-3.80;99.90;;;;;;5054030;28;20065;-79
2021/04/27 03:08:51;;;;;;;6.13;3.13;;;-3.90;99.90;;;;;;5053607;28;20131;-79
2021/04/27 03:11:17;;;;;;;9.88;4.80;;;-3.90;99.90;;;;;;5053199;28;20053;-79
2021/04/27 03:13:44;;;;;;;6.65;4.30;;;-3.90;99.90;;;;;;5055406;28;20084;-79
2021/04/27 03:16:10;;;;;;;6.72;3.80;;;-3.90;99.90;;;;;;5058580;28;20464;-79
2021/04/27 03:18:37;;;;;;;8.05;3.70;;;-3.90;99.90;;;;;;5061158;28;20120;-79
2021/04/27 03:21:03;;;;;;;4.25;3.10;;;-4.00;99.90;;;;;;5056236;28;20110;-78
2021/04/27 03:23:30;;;;;;;3.25;2.53;;;-4.00;99.90;;;;;;5052839;28;20088;-78
2021/04/27 03:25:56;;;;;;;8.38;3.20;;;-3.90;99.90;;;;;;5053997;28;20099;-78
2021/04/27 03:28:24;;;;;;;8.40;3.60;;;-3.90;99.90;;;;;;5053530;28;20492;-78
2021/04/27 03:30:50;;;;;;;5.10;3.53;;;-3.80;99.90;;;;;;5054435;28;20048;-78
2021/04/27 03:33:22;;;;;;;4.93;3.15;;;-3.80;99.90;;;;;;5054601;28;20053;-78
2021/04/27 03:35:49;;;;;;;5.07;2.72;;;-3.80;99.90;;;;;;5053103;28;20141;-79
2021/04/27 03:38:16;;;;;;;4.63;2.63;;;-3.80;99.90;;;;;;5054369;28;20049;-78
2021/04/27 03:40:42;;;;;;;4.43;2.83;;;-3.80;99.90;;;;;;5053308;28;20068;-78
2021/04/27 03:43:11;;;;;;;3.10;2.45;;;-3.80;99.90;;;;;;5053720;28;20049;-79
2021/04/27 03:45:37;;;;;;;3.40;3.10;;;-3.90;99.90;;;;;;5053290;28;20075;-79
2021/04/27 03:48:06;;;;;;;5.93;2.95;;;-3.90;99.90;;;;;;5055126;28;20045;-78
2021/04/27 03:50:34;;;;;;;8.48;3.25;;;-4.00;99.90;;;;;;5054679;28;20053;-78
2021/04/27 03:53:00;;;;;;;4.18;2.85;;;-4.00;99.90;;;;;;5053813;28;20087;-79
2021/04/27 03:55:27;;;;;;;3.47;2.80;;;-4.00;99.90;;;;;;5055973;28;20057;-79
2021/04/27 03:57:53;;;;;;;5.38;3.03;;;-4.00;99.90;;;;;;5057848;28;20057;-79
2021/04/27 04:00:20;;;;;;;4.00;3.30;;;-4.10;99.90;;;;;;5059286;28;20106;-80
2021/04/27 04:02:46;;;;;;;6.22;3.22;;;-4.10;99.90;;;;;;5057296;28;20614;-78
2021/04/27 04:05:13;;;;;;;3.38;3.00;;;-4.20;99.90;;;;;;5058090;28;20102;-78
2021/04/27 04:07:40;;;;;;;5.90;3.38;;;-4.10;99.90;;;;;;5056314;28;20500;-78
2021/04/27 04:10:08;;;;;;;4.25;3.10;;;-4.20;99.90;;;;;;5056760;28;20057;-78
2021/04/27 04:12:36;;;;;;;3.47;2.80;;;-4.20;99.90;;;;;;5057287;28;20493;-79
2021/04/27 04:15:04;;;;;;;5.22;3.80;;;-4.10;99.90;;;;;;5056501;28;20557;-78
2021/04/27 04:17:30;;;;;;;9.85;3.88;;;-4.10;99.90;;;;;;5057015;28;20053;-79
2021/04/27 04:19:57;;;;;;;6.47;3.33;;;-4.00;99.90;;;;;;5056592;28;20389;-79
2021/04/27 04:22:24;;;;;;;7.28;3.67;;;-3.90;99.90;;;;;;5058223;28;20128;-79
2021/04/27 04:24:50;;;;;;;6.40;3.00;;;-3.80;99.90;;;;;;5056721;28;20496;-79
2021/04/27 04:27:17;;;;;;;4.00;2.88;;;-3.80;99.90;;;;;;5058587;28;20076;-79
2021/04/27 04:29:43;;;;;;;2.92;2.20;;;-3.60;99.90;;;;;;5057179;28;20132;-78
2021/04/27 04:32:13;;;;;;;4.60;2.40;;;-3.50;99.90;;;;;;5056209;28;20478;-77
2021/04/27 04:34:40;;;;;;;5.63;2.60;;;-3.50;99.90;;;;;;5056638;28;20095;-78
2021/04/27 04:37:07;;;;;;;3.70;2.67;;;-3.40;99.90;;;;;;5055110;28;20557;-78
2021/04/27 04:39:33;;;;;;;4.47;3.20;;;-3.40;99.90;;;;;;5054612;28;20088;-81
2021/04/27 04:42:00;;;;;;;6.05;2.65;;;-3.40;99.90;;;;;;5054826;28;20057;-78
2021/04/27 04:44:29;;;;;;;3.08;2.30;;;-3.40;99.90;;;;;;5056175;28;20045;-78
2021/04/27 04:46:57;;;;;;;3.78;2.63;;;-3.30;99.90;;;;;;5054561;28;20127;-78
2021/04/27 04:49:24;;;;;;;5.40;2.88;;;-3.20;99.90;;;;;;5054847;28;20120;-78
2021/04/27 04:51:52;;;;;;;12.80;3.05;;;-3.10;99.90;;;;;;5054419;28;20052;-77
2021/04/27 04:54:20;;;;;;;7.35;2.88;;;-2.80;99.90;;;;;;5056195;28;20045;-78
2021/04/27 04:56:47;;;;;;;4.45;2.30;;;-2.40;99.90;;;;;;5055785;28;20464;-77
2021/04/27 04:59:15;;;;;;;9.82;2.95;;;-2.10;99.90;;;;;;5054227;28;20099;-78
2021/04/27 05:01:42;;;;;;;6.72;2.15;;;-1.80;99.90;;;;;;5054320;28;20056;-78
2021/04/27 05:04:08;;;;;;;3.95;2.40;;;-1.50;99.90;;;;;;5055583;28;20048;-78
2021/04/27 05:06:41;;;;;;;3.35;2.08;;;-1.40;99.90;;;;;;5055585;28;20041;-78
2021/04/27 05:09:09;;;;;;;2.55;2.13;;;-1.20;99.90;;;;;;5054928;28;20052;-78
2021/04/27 05:11:36;;;;;;;4.68;1.85;;;-1.00;99.90;;;;;;5055214;28;20124;-78
2021/04/27 05:14:02;;;;;;;2.70;2.13;;;-0.60;99.90;;;;;;5055319;28;20057;-78
2021/04/27 05:16:29;;;;;;;2.67;1.88;;;0.00;99.90;;;;;;5056595;28;20053;-79
2021/04/27 05:18:57;;;;;;;5.15;1.88;;;0.70;99.90;;;;;;5056985;28;20049;-82
2021/04/27 05:21:24;;;;;;;3.00;1.70;;;1.50;99.90;;;;;;5061958;28;20128;-81
2021/04/27 05:23:50;;;;;;;2.75;1.50;;;2.60;99.90;;;;;;5057786;28;20045;-81
2021/04/27 05:26:16;;;;;;;3.05;1.60;;;3.40;99.90;;;;;;5058191;28;20069;-82
2021/04/27 05:28:43;;;;;;;4.18;1.70;;;4.50;99.90;;;;;;5057659;28;20045;-81
2021/04/27 05:31:09;;;;;;;7.70;2.38;;;5.20;99.90;;;;;;5058358;28;20473;-81
2021/04/27 05:33:35;;;;;;;4.18;1.95;;;5.90;99.90;;;;;;5058386;28;20080;-81
2021/04/27 05:36:02;;;;;;;3.97;1.70;;;5.90;99.90;;;;;;5058435;28;20480;-81
2021/04/27 05:38:29;;;;;;;5.20;1.60;;;6.00;99.90;;;;;;5056700;28;20504;-81
2021/04/27 05:40:55;;;;;;;11.73;2.13;;;6.80;99.90;;;;;;5056815;28;20087;-81
2021/04/27 05:43:21;;;;;;;5.45;1.50;;;6.70;99.80;;;;;;5057640;28;20083;-81
2021/04/27 05:45:47;;;;;;;5.28;1.48;;;7.00;99.90;;;;;;5058606;28;20091;-82
2021/04/27 05:48:14;;;;;;;7.93;2.88;;;6.90;98.10;;;;;;5056867;28;20061;-81
2021/04/27 05:50:40;;;;;;;15.48;2.13;;;7.20;98.40;;;;;;5056785;28;20049;-81
2021/04/27 05:53:06;;;;;;;14.98;2.13;;;8.20;94.60;;;;;;5056479;28;20087;-82
2021/04/27 05:55:33;;;;;;;21.60;2.45;;;8.20;93.70;;;;;;5058715;28;20072;-82
2021/04/27 05:57:59;;;;;;;26.40;3.50;;;9.10;87.80;;;;;;5066917;28;20083;-82
2021/04/27 06:00:27;;;;;;;13.38;3.38;;;9.00;85.30;;;;;;5067514;28;20049;-81
2021/04/27 06:02:54;;;;;;;16.95;3.13;;;9.10;83.90;;;;;;5065061;28;20040;-81
2021/04/27 06:05:20;;;;;;;10.48;2.25;;;9.00;83.80;;;;;;5069254;28;20135;-82
2021/04/27 06:07:47;;;;;;;12.30;2.78;;;9.70;80.40;;;;;;5066504;28;20083;-82
2021/04/27 06:10:13;;;;;;;72.95;7.03;;;10.20;77.80;;;;;;5066037;28;20037;-82
2021/04/27 06:12:39;;;;;;;20.80;3.75;;;10.80;75.10;;;;;;5058525;28;20045;-82
2021/04/27 06:15:07;;;;;;;24.02;8.38;;;10.30;74.20;;;;;;5058761;28;20558;-82
2021/04/27 06:17:35;;;;;;;20.45;8.23;;;10.70;72.80;;;;;;5057973;28;20104;-82
2021/04/27 06:20:07;;;;;;;33.30;8.38;;;10.30;72.90;;;;;;5059063;28;20045;-83
2021/04/27 06:22:34;;;;;;;41.05;8.45;;;11.00;72.00;;;;;;5058986;28;20464;-83
2021/04/27 06:25:00;;;;;;;26.05;7.57;;;11.20;70.20;;;;;;5060756;28;20118;-82
2021/04/27 06:27:28;;;;;;;44.75;7.45;;;11.30;69.40;;;;;;5061339;28;20132;-81
2021/04/27 06:29:56;;;;;;;39.03;6.13;;;11.50;67.30;;;;;;5060696;28;20080;-82
2021/04/27 06:32:22;;;;;;;21.15;6.55;;;11.50;66.80;;;;;;5060361;28;20045;-82
2021/04/27 06:34:49;;;;;;;35.17;6.07;;;11.90;65.70;;;;;;5059142;28;20084;-82
2021/04/27 06:37:16;;;;;;;43.38;13.70;;;12.50;64.10;;;;;;5060389;28;20051;-83
2021/04/27 06:39:42;;;;;;;31.00;4.07;;;12.90;60.50;;;;;;5058443;28;20099;-83
2021/04/27 06:42:09;;;;;;;20.52;3.45;;;12.60;60.60;;;;;;5057406;28;20508;-83
2021/04/27 06:44:36;;;;;;;16.50;3.00;;;12.30;63.30;;;;;;5060002;28;20069;-83
2021/04/27 06:47:04;;;;;;;19.63;2.95;;;13.00;61.00;;;;;;5060011;28;20045;-83
2021/04/27 06:49:30;;;;;;;23.02;3.40;;;13.60;59.40;;;;;;5064663;28;20441;-82
2021/04/27 06:51:56;;;;;;;8.65;2.67;;;13.70;58.50;;;;;;5063297;28;20123;-82
2021/04/27 06:54:23;;;;;;;8.40;2.30;;;14.00;58.00;;;;;;5056805;28;20040;-82
2021/04/27 06:56:49;;;;;;;5.05;2.20;;;14.30;57.70;;;;;;5055191;28;20052;-82
2021/04/27 06:59:34;;;;;;;3.30;1.70;;;14.80;55.10;;;;;;5064604;28;20051;-82
2021/04/27 07:02:02;;;;;;;9.45;8.52;;;15.50;54.60;;;;;;5061581;28;20099;-83
2021/04/27 07:04:30;;;;;;;4.93;2.40;;;15.00;52.80;;;;;;5057699;28;20045;-82
2021/04/27 07:06:56;;;;;;;5.97;1.92;;;15.00;54.40;;;;;;5057817;28;20476;-82
2021/04/27 07:09:22;;;;;;;7.88;2.17;;;15.40;54.10;;;;;;5056996;28;20115;-83
2021/04/27 07:11:49;;;;;;;6.95;2.45;;;15.80;52.90;;;;;;5066537;28;20083;-83
2021/04/27 07:14:15;;;;;;;6.05;2.22;;;15.80;52.90;;;;;;5067438;28;20051;-82
2021/04/27 07:16:41;;;;;;;8.18;1.92;;;15.80;53.30;;;;;;5076363;28;20055;-82
2021/04/27 07:19:09;;;;;;;3.67;1.70;;;16.70;52.50;;;;;;5078487;28;20053;-82
2021/04/27 07:21:37;;;;;;;27.48;3.50;;;17.60;49.50;;;;;;5077271;28;20411;-83
2021/04/27 07:24:04;;;;;;;3.85;1.63;;;17.00;50.10;;;;;;5078343;28;20110;-82
2021/04/27 07:26:31;;;;;;;6.03;2.25;;;18.00;49.60;;;;;;5079106;28;20083;-82
2021/04/27 07:28:58;;;;;;;8.27;1.92;;;18.80;48.00;;;;;;5080547;28;20415;-82
2021/04/27 07:31:26;;;;;;;8.82;2.45;;;19.40;46.40;;;;;;5082925;28;20549;-82
2021/04/27 07:33:52;;;;;;;6.65;2.28;;;19.50;46.80;;;;;;5083105;28;20051;-83
2021/04/27 07:36:20;;;;;;;6.25;2.35;;;19.60;44.70;;;;;;5080719;28;20079;-82
2021/04/27 07:38:46;;;;;;;9.80;2.75;;;17.90;45.00;;;;;;5076294;28;20079;-81
2021/04/27 07:41:12;;;;;;;2.55;2.13;;;16.00;48.40;;;;;;5070988;28;20049;-83
2021/04/27 07:43:39;;;;;;;18.17;3.25;;;15.90;49.60;;;;;;5075231;28;20056;-82
2021/04/27 07:46:05;;;;;;;8.50;2.40;;;14.00;52.90;;;;;;5081246;28;20465;-82
2021/04/27 07:48:32;;;;;;;6.97;2.30;;;15.40;54.20;;;;;;5080815;28;20053;-83
2021/04/27 07:50:59;;;;;;;13.82;2.83;;;17.70;49.70;;;;;;5081639;28;20044;-83
2021/04/27 07:53:26;;;;;;;4.35;2.13;;;18.10;48.70;;;;;;5083520;28;20052;-81
2021/04/27 07:55:52;;;;;;;2.95;2.20;;;17.80;47.60;;;;;;5082994;28;20066;-80
2021/04/27 07:58:20;;;;;;;5.40;2.05;;;18.00;45.80;;;;;;5076837;28;20107;-81
2021/04/27 08:00:57;;;;;;;1.80;1.70;;;18.00;46.50;;;;;;5076627;28;20061;-80
2021/04/27 08:03:25;;;;;;;8.27;2.15;;;18.60;46.60;;;;;;5081057;28;20077;-81
2021/04/27 08:05:54;;;;;;;4.85;3.03;;;18.90;46.70;;;;;;5078704;28;20075;-82
2021/04/27 08:08:24;;;;;;;4.55;2.22;;;18.30;46.50;;;;;;5070245;28;20052;-77
2021/04/27 08:10:56;;;;;;;6.30;2.67;;;17.60;47.30;;;;;;5069392;28;20133;-77
2021/04/27 08:13:23;;;;;;;25.20;12.35;;;17.60;49.50;;;;;;5060513;28;20048;-77
2021/04/27 08:15:49;;;;;;;7.10;2.17;;;18.40;48.20;;;;;;5058396;28;20053;-78
2021/04/27 08:18:24;;;;;;;9.45;2.28;;;19.70;45.20;;;;;;5061520;28;20060;-78
2021/04/27 08:20:52;;;;;;;4.35;1.90;;;20.70;44.60;;;;;;5060667;28;20049;-77
2021/04/27 08:23:20;;;;;;;6.45;2.20;;;20.00;42.50;;;;;;5068560;28;20087;-77
2021/04/27 08:25:58;;;;;;;22.80;4.20;;;20.50;43.50;;;;;;5056174;28;20064;-77
2021/04/27 08:28:25;;;;;;;4.13;2.15;;;21.00;42.90;;;;;;5055387;28;20060;-77
2021/04/27 08:30:56;;;;;;;6.45;3.53;;;20.70;43.80;;;;;;5058291;28;20080;-79
2021/04/27 08:33:24;;;;;;;19.60;9.07;;;19.60;45.00;;;;;;5077356;28;20094;-77
2021/04/27 08:35:52;;;;;;;24.08;4.07;;;18.30;46.30;;;;;;5082342;28;20074;-79
2021/04/27 08:38:20;;;;;;;7.05;2.67;;;19.60;44.50;;;;;;5081035;28;20063;-79
2021/04/27 08:40:51;;;;;;;3.15;2.45;;;21.30;41.90;;;;;;5078227;28;20459;-77
2021/04/27 08:43:21;;;;;;;3.75;2.28;;;20.90;41.80;;;;;;5079420;28;20064;-79
2021/04/27 08:45:48;;;;;;;13.48;3.97;;;19.30;41.60;;;;;;5075287;28;20052;-78
2021/04/27 08:48:15;;;;;;;5.05;3.00;;;20.00;45.40;;;;;;5077279;28;20094;-78
2021/04/27 08:50:51;;;;;;;4.15;2.60;;;18.50;46.20;;;;;;5075099;28;20051;-78
2021/04/27 08:53:18;;;;;;;8.70;2.22;;;18.00;45.90;;;;;;5074964;28;20052;-78
2021/04/27 08:55:46;;;;;;;7.15;2.63;;;17.90;45.70;;;;;;5075031;28;20104;-77
2021/04/27 08:58:14;;;;;;;4.47;2.42;;;18.00;46.60;;;;;;5075996;28;20533;-77
2021/04/27 09:00:53;;;;;;;6.05;2.10;;;19.80;46.00;;;;;;5075095;28;20514;-78
2021/04/27 09:03:20;;;;;;;6.50;2.75;;;20.90;42.30;;;;;;5077010;28;20044;-78
2021/04/27 09:05:46;;;;;;;4.93;2.25;;;20.70;42.30;;;;;;5074819;28;20491;-78
2021/04/27 09:08:37;;;;;;;15.95;3.00;;;20.40;44.50;;;;;;5076637;28;20044;-78
2021/04/27 09:11:28;;;;;;;4.45;2.85;;;20.00;43.50;;;;;;5074439;28;20496;-78
2021/04/27 09:14:15;;;;;;;7.25;2.70;;;20.80;44.80;;;;;;5078057;28;20050;-78
2021/04/27 09:16:48;;;;;;;3.88;2.30;;;21.10;42.00;;;;;;5080753;28;20048;-79
2021/04/27 09:19:48;;;;;;;4.53;2.50;;;19.40;42.70;;;;;;5079828;28;20055;-78
2021/04/27 09:22:28;;;;;;;5.70;2.60;;;20.10;43.40;;;;;;5075662;28;20052;-79
2021/04/27 09:24:56;;;;;;;2.40;1.85;;;21.50;41.00;;;;;;5075144;28;20048;-80
2021/04/27 09:27:32;;;;;;;3.25;2.75;;;21.10;40.20;;;;;;5074816;28;20444;-79
2021/04/27 09:30:27;;;;;;;6.60;2.63;;;20.40;41.80;;;;;;5074376;28;20098;-78
2021/04/27 09:33:09;;;;;;;17.08;3.15;;;20.80;39.90;;;;;;5075420;28;20075;-78
2021/04/27 09:35:45;;;;;;;7.00;2.08;;;21.80;40.20;;;;;;5074526;28;20056;-78
2021/04/27 09:38:21;;;;;;;7.20;2.60;;;21.20;39.70;;;;;;5074346;28;20094;-78
2021/04/27 09:40:54;;;;;;;6.38;2.65;;;21.70;39.70;;;;;;5074075;28;20044;-78
2021/04/27 09:43:24;;;;;;;5.97;2.60;;;21.50;38.50;;;;;;5074952;28;20056;-78
2021/04/27 09:45:54;;;;;;;3.30;2.17;;;22.00;39.10;;;;;;5072930;28;20041;-77
2021/04/27 09:48:54;;;;;;;5.43;2.70;;;24.70;40.10;;;;;;5073522;28;20135;-80
2021/04/27 09:51:36;;;;;;;6.13;2.53;;;25.20;37.20;;;;;;5074109;28;20048;-77
2021/04/27 09:54:07;;;;;;;3.85;2.10;;;22.80;36.70;;;;;;5074001;28;20052;-77
2021/04/27 09:56:48;;;;;;;6.80;2.75;;;22.30;38.80;;;;;;5074963;28;20785;-78
2021/04/27 09:59:25;;;;;;;3.20;2.50;;;22.70;37.30;;;;;;5072844;28;20044;-78
2021/04/27 10:01:54;;;;;;;3.97;2.40;;;23.20;37.20;;;;;;5071074;28;20496;-77
2021/04/27 10:04:23;;;;;;;3.20;3.00;;;25.80;37.70;;;;;;5074483;28;20052;-77
2021/04/27 10:06:50;;;;;;;5.07;2.47;;;24.60;35.40;;;;;;5073771;28;20040;-77
2021/04/27 10:09:17;;;;;;;22.70;4.05;;;24.80;35.60;;;;;;5073607;28;20523;-78
2021/04/27 10:11:44;;;;;;;9.15;3.00;;;25.70;35.10;;;;;;5072206;28;20044;-77
2021/04/27 10:14:11;;;;;;;4.15;2.50;;;24.70;34.80;;;;;;5072423;28;20052;-77
2021/04/27 10:16:39;;;;;;;5.10;2.45;;;23.30;35.90;;;;;;5073787;28;20083;-77
2021/04/27 10:19:10;;;;;;;7.75;2.92;;;23.20;35.90;;;;;;5072231;28;20076;-80
2021/04/27 10:21:37;;;;;;;4.22;3.17;;;23.10;36.10;;;;;;5070499;28;20419;-78
2021/04/27 10:24:13;;;;;;;4.47;2.67;;;22.80;36.70;;;;;;5070501;28;20048;-79
2021/04/27 10:26:43;;;;;;;5.70;2.60;;;24.30;36.50;;;;;;5071463;28;20044;-78
2021/04/27 10:29:18;;;;;;;2.92;2.47;;;23.70;36.30;;;;;;5070411;28;20547;-78
2021/04/27 10:31:46;;;;;;;5.07;2.67;;;23.10;36.90;;;;;;5070578;28;20041;-80
2021/04/27 10:34:19;;;;;;;6.47;2.70;;;23.30;35.40;;;;;;5072943;28;20040;-78
2021/04/27 10:36:48;;;;;;;7.95;2.70;;;23.40;36.50;;;;;;5074293;28;20098;-78
2021/04/27 10:39:16;;;;;;;9.25;2.90;;;21.40;38.90;;;;;;5073461;28;20044;-79
2021/04/27 10:41:57;;;;;;;3.30;2.58;;;22.10;37.20;;;;;;5073455;28;20087;-80
2021/04/27 10:44:24;;;;;;;7.50;2.63;;;22.50;38.00;;;;;;5073466;28;20483;-78
2021/04/27 10:46:54;;;;;;;6.85;2.47;;;23.50;37.40;;;;;;5073773;28;20338;-79
2021/04/27 10:49:31;;;;;;;52.00;5.57;;;23.90;35.40;;;;;;5074441;28;20076;-78
2021/04/27 10:51:59;;;;;;;10.52;2.60;;;21.60;36.90;;;;;;5072836;28;20173;-78
2021/04/27 10:54:37;;;;;;;5.88;3.15;;;21.70;39.50;;;;;;5072862;28;20040;-78
2021/04/27 10:57:15;;;;;;;5.72;3.00;;;23.30;38.20;;;;;;5073075;28;20048;-78
2021/04/27 11:00:02;;;;;;;9.18;2.67;;;23.50;36.30;;;;;;5074602;28;20488;-79
2021/04/27 11:02:30;;;;;;;5.10;2.70;;;22.80;37.20;;;;;;5073526;28;20055;-79
2021/04/27 11:05:19;;;;;;;18.25;3.45;;;22.40;37.40;;;;;;5073862;28;20080;-79
2021/04/27 11:07:46;;;;;;;5.43;2.90;;;23.50;35.60;;;;;;5074808;28;20079;-78
2021/04/27 11:10:12;;;;;;;3.65;2.35;;;22.60;35.50;;;;;;5075373;28;20349;-79
2021/04/27 11:12:56;;;;;;;6.72;2.90;;;22.10;36.30;;;;;;5074009;28;20063;-78
2021/04/27 11:15:26;;;;;;;11.20;3.05;;;21.60;38.20;;;;;;5072961;28;20036;-79
2021/04/27 11:18:11;;;;;;;11.10;2.85;;;22.70;36.90;;;;;;5074518;28;20133;-78
2021/04/27 11:20:47;;;;;;;5.40;2.85;;;21.50;37.40;;;;;;5072619;28;20427;-78
2021/04/27 11:23:52;;;;;;;7.55;2.67;;;22.60;38.40;;;;;;5072179;28;20135;-78
2021/04/27 11:26:34;;;;;;;7.55;3.00;;;24.10;38.00;;;;;;5073002;28;20044;-78
2021/04/27 11:29:08;;;;;;;3.75;2.75;;;25.80;37.60;;;;;;5074280;28;20131;-79
2021/04/27 11:31:54;;;;;;;3.97;2.72;;;23.90;34.20;;;;;;5074431;28;20049;-78
2021/04/27 11:34:21;;;;;;;3.92;2.75;;;23.40;35.20;;;;;;5073358;28;20054;-78
2021/04/27 11:36:47;;;;;;;4.85;2.60;;;23.00;35.20;;;;;;5073979;28;20080;-79
2021/04/27 11:39:17;;;;;;;9.25;3.55;;;22.60;36.60;;;;;;5076253;28;20044;-78
2021/04/27 11:41:45;;;;;;;11.68;3.45;;;22.40;37.30;;;;;;5074944;28;20056;-79
2021/04/27 11:44:11;;;;;;;8.73;2.65;;;21.40;37.00;;;;;;5073108;28;20132;-78
2021/04/27 11:46:59;;;;;;;4.40;3.10;;;20.70;37.80;;;;;;5072655;28;20049;-78
2021/04/27 11:49:46;;;;;;;5.90;2.90;;;19.90;40.50;;;;;;5073120;28;20048;-78
2021/04/27 11:52:13;;;;;;;7.32;3.10;;;21.10;40.10;;;;;;5072124;28;20049;-78
2021/04/27 11:54:41;;;;;;;7.32;3.03;;;21.20;38.50;;;;;;5073497;28;20080;-80
2021/04/27 11:57:14;;;;;;;5.55;2.80;;;21.90;40.60;;;;;;5074177;28;20512;-80
2021/04/27 11:59:41;;;;;;;3.22;2.97;;;22.40;37.30;;;;;;5074852;28;20500;-82
2021/04/27 12:02:12;;;;;;;3.70;2.83;;;24.00;37.40;;;;;;5077999;28;20048;-83
2021/04/27 12:04:38;;;;;;;3.40;2.45;;;22.60;36.10;;;;;;5076039;28;20059;-83
2021/04/27 12:07:05;;;;;;;4.82;2.67;;;23.00;36.50;;;;;;5075593;28;20487;-82
2021/04/27 12:09:44;;;;;;;4.53;2.85;;;23.90;37.00;;;;;;5077874;28;20048;-83
2021/04/27 12:12:13;;;;;;;4.32;2.97;;;23.40;34.90;;;;;;5077519;28;20082;-83
2021/04/27 12:14:55;;;;;;;5.82;3.05;;;21.50;37.10;;;;;;5077474;28;20461;-81
2021/04/27 12:17:33;;;;;;;3.10;2.80;;;20.90;40.40;;;;;;5075652;28;20083;-81
2021/04/27 12:20:09;;;;;;;3.92;2.75;;;20.90;40.20;;;;;;5075776;28;20057;-80
2021/04/27 12:22:51;;;;;;;5.07;2.80;;;20.70;40.00;;;;;;5076175;28;20056;-80
2021/04/27 12:25:20;;;;;;;4.20;2.78;;;20.40;41.30;;;;;;5074924;28;20462;-81
2021/04/27 12:27:51;;;;;;;6.47;3.15;;;19.80;40.40;;;;;;5079260;28;20045;-83
2021/04/27 12:30:23;;;;;;;3.20;2.67;;;19.70;40.20;;;;;;5079192;28;20082;-83
2021/04/27 12:33:12;;;;;;;3.63;2.72;;;19.00;39.20;;;;;;5081528;28;20044;-83
2021/04/27 12:35:42;;;;;;;3.47;2.35;;;18.60;41.70;;;;;;5080133;28;20048;-82
2021/04/27 12:38:15;;;;;;;9.05;6.38;;;18.30;41.50;;;;;;5080551;28;20126;-82
2021/04/27 12:40:49;;;;;;;5.82;2.75;;;17.90;41.70;;;;;;5078831;28;20556;-82
2021/04/27 12:43:16;;;;;;;9.20;3.17;;;18.30;42.00;;;;;;5081342;28;20068;-83
2021/04/27 12:45:59;;;;;;;7.07;2.95;;;18.50;42.30;;;;;;5081391;28;20049;-82
2021/04/27 12:48:30;;;;;;;5.10;4.32;;;18.30;40.70;;;;;;5082378;28;20101;-83
2021/04/27 12:51:05;;;;;;;6.05;2.90;;;17.80;41.50;;;;;;5083136;28;20044;-82
2021/04/27 12:53:44;;;;;;;6.18;2.80;;;17.30;43.00;;;;;;5084109;28;20044;-82
2021/04/27 12:56:15;;;;;;;5.38;2.72;;;17.40;44.50;;;;;;5081487;28;20052;-82
2021/04/27 12:58:44;;;;;;;7.00;2.42;;;18.00;42.70;;;;;;5080080;28;20094;-83
2021/04/27 13:01:18;;;;;;;17.05;9.98;;;18.00;42.50;;;;;;5083627;28;20462;-83
2021/04/27 13:03:47;;;;;;;8.95;7.13;;;17.60;41.70;;;;;;5082448;28;20045;-82
2021/04/27 13:06:30;;;;;;;12.35;3.67;;;17.80;43.60;;;;;;5078130;28;20041;-78
2021/04/27 13:09:05;;;;;;;;;;;17.70;42.80;;;;;;5075350;28;20048;-79
2021/04/27 13:11:32;;;;;;;3.90;2.50;;;17.40;43.60;;;;;;5076192;28;19955;-79
2021/04/27 13:14:20;;;;;;;3.60;2.67;;;17.40;44.60;;;;;;5074676;28;20091;-78
2021/04/27 13:16:47;;;;;;;5.63;3.00;;;17.40;43.60;;;;;;5075237;28;20052;-79